Time;durP1;ratioP1;P1;durP2;ratioP2;P2;SDS_P1;SDS_P2;PMS_P1;PMS_P2;Temp;Humidity;BMP_temperature;BMP_pressure;BME280_temperature;BME280_humidity;BME280_pressure;Samples;Min_cycle;Max_cycle;Signal;HPM_P1;HPM_P2
2022/07/19 00:00:24;;;;;;;6.45;3.20;;;;;;;;;;5107154;27;20243;-15
2022/07/19 00:02:52;;;;;;;3.40;3.05;;;;;;;;;;5098490;28;20228;-16
2022/07/19 00:05:19;;;;;;;4.45;2.92;;;;;;;;;;5089500;28;20243;-17
2022/07/19 00:07:47;;;;;;;4.28;3.25;;;;;;;;;;5091584;28;20949;-17
2022/07/19 00:10:14;;;;;;;5.72;3.40;;;;;;;;;;5095498;28;20224;-16
2022/07/19 00:12:42;;;;;;;5.05;3.47;;;;;;;;;;5101868;27;20271;-16
2022/07/19 00:15:11;;;;;;;4.60;3.20;;;;;;;;;;5106880;28;20232;-17
2022/07/19 00:17:39;;;;;;;5.88;2.80;;;;;;;;;;5101051;28;20262;-16
2022/07/19 00:20:07;;;;;;;5.32;3.13;;;;;;;;;;5103910;27;20227;-17
2022/07/19 00:22:35;;;;;;;5.75;2.90;;;;;;;;;;5099480;28;20271;-17
2022/07/19 00:25:02;;;;;;;3.97;2.65;;;;;;;;;;5102882;28;20235;-16
2022/07/19 00:27:29;;;;;;;4.38;3.00;;;;;;;;;;5099519;28;20632;-17
2022/07/19 00:29:57;;;;;;;5.95;2.88;;;;;;;;;;5111608;27;20232;-17
2022/07/19 00:32:25;;;;;;;4.88;3.33;;;;;;;;;;5098009;27;20231;-16
2022/07/19 00:34:53;;;;;;;5.10;3.10;;;;;;;;;;5112426;27;20641;-17
2022/07/19 00:37:20;;;;;;;5.57;3.05;;;;;;;;;;5093417;28;20225;-15
2022/07/19 00:39:48;;;;;;;5.03;2.95;;;;;;;;;;5108614;28;20236;-17
2022/07/19 00:42:15;;;;;;;3.33;3.00;;;;;;;;;;5109495;27;20234;-16
2022/07/19 00:44:42;;;;;;;5.35;3.20;;;;;;;;;;5108468;27;20228;-16
2022/07/19 00:47:10;;;;;;;4.53;3.28;;;;;;;;;;5105890;27;20236;-16
2022/07/19 00:49:38;;;;;;;5.82;3.30;;;;;;;;;;5109020;27;20233;-17
2022/07/19 00:52:06;;;;;;;9.07;3.47;;;;;;;;;;5112837;27;20232;-17
2022/07/19 00:54:34;;;;;;;8.45;3.35;;;;;;;;;;5110983;27;20319;-17
2022/07/19 00:57:01;;;;;;;8.88;3.55;;;;;;;;;;5107921;28;20609;-16
2022/07/19 00:59:29;;;;;;;4.78;3.00;;;;;;;;;;5107235;27;20237;-17
2022/07/19 01:01:56;;;;;;;6.97;3.20;;;;;;;;;;5106238;28;20228;-17
2022/07/19 01:04:24;;;;;;;5.68;3.63;;;;;;;;;;5110742;27;20228;-16
2022/07/19 01:06:52;;;;;;;8.30;3.30;;;;;;;;;;5106920;27;20236;-17
2022/07/19 01:09:20;;;;;;;8.15;3.35;;;;;;;;;;5111447;28;20239;-16
2022/07/19 01:11:47;;;;;;;6.05;3.50;;;;;;;;;;5107475;27;20225;-16
2022/07/19 01:14:15;;;;;;;5.32;3.38;;;;;;;;;;5110707;27;20224;-17
2022/07/19 01:16:44;;;;;;;6.55;3.70;;;;;;;;;;5102203;27;20324;-14
2022/07/19 01:19:11;;;;;;;7.38;3.33;;;;;;;;;;5105886;27;20237;-17
2022/07/19 01:21:40;;;;;;;6.97;3.90;;;;;;;;;;5097051;28;20236;-17
2022/07/19 01:24:07;;;;;;;8.90;3.30;;;;;;;;;;5102106;28;20231;-17
2022/07/19 01:26:34;;;;;;;5.30;3.45;;;;;;;;;;5105866;28;20240;-16
2022/07/19 01:29:02;;;;;;;6.28;3.42;;;;;;;;;;5104767;27;20224;-16
2022/07/19 01:31:29;;;;;;;4.72;3.20;;;;;;;;;;5109955;27;20234;-17
2022/07/19 01:33:57;;;;;;;5.20;3.35;;;;;;;;;;5104864;27;21013;-16
2022/07/19 01:36:24;;;;;;;4.45;3.15;;;;;;;;;;5108265;27;20224;-16
2022/07/19 01:38:53;;;;;;;7.50;3.80;;;;;;;;;;5107113;27;20969;-16
2022/07/19 01:41:20;;;;;;;5.72;3.20;;;;;;;;;;5107482;27;20331;-16
2022/07/19 01:43:47;;;;;;;6.15;3.85;;;;;;;;;;5102258;28;20224;-16
2022/07/19 01:46:15;;;;;;;4.70;3.00;;;;;;;;;;5107056;27;20316;-17
2022/07/19 01:48:42;;;;;;;7.68;3.30;;;;;;;;;;5108223;27;20240;-17
2022/07/19 01:51:10;;;;;;;8.65;3.50;;;;;;;;;;5106155;27;20238;-17
2022/07/19 01:53:37;;;;;;;4.07;3.42;;;;;;;;;;5109104;27;20220;-17
2022/07/19 01:56:06;;;;;;;6.03;3.25;;;;;;;;;;5109261;27;20231;-17
2022/07/19 01:58:33;;;;;;;4.88;3.30;;;;;;;;;;5108413;28;20231;-17
2022/07/19 02:01:01;;;;;;;4.82;3.10;;;;;;;;;;5104348;27;20246;-16
2022/07/19 02:03:28;;;;;;;5.65;3.13;;;;;;;;;;5109396;27;20236;-17
2022/07/19 02:05:56;;;;;;;4.55;3.08;;;;;;;;;;5110777;27;20236;-17
2022/07/19 02:08:24;;;;;;;7.10;3.47;;;;;;;;;;5110440;27;20250;-16
2022/07/19 02:10:52;;;;;;;5.18;3.60;;;;;;;;;;5111477;27;20235;-16
2022/07/19 02:13:20;;;;;;;4.05;2.90;;;;;;;;;;5100798;27;20225;-16
2022/07/19 02:15:48;;;;;;;5.30;3.35;;;;;;;;;;5089094;28;20242;-16
2022/07/19 02:18:15;;;;;;;4.53;3.53;;;;;;;;;;5089283;28;21002;-16
2022/07/19 02:20:43;;;;;;;5.47;3.40;;;;;;;;;;5091964;28;20232;-18
2022/07/19 02:23:10;;;;;;;6.82;3.65;;;;;;;;;;5085179;28;20282;-17
2022/07/19 02:25:37;;;;;;;5.00;3.30;;;;;;;;;;5077557;28;20232;-18
2022/07/19 02:28:05;;;;;;;6.40;3.40;;;;;;;;;;5072221;28;21055;-18
2022/07/19 02:30:33;;;;;;;4.25;3.50;;;;;;;;;;5077873;28;20228;-18
2022/07/19 02:33:01;;;;;;;6.53;3.92;;;;;;;;;;5086487;28;20225;-17
2022/07/19 02:35:28;;;;;;;6.10;3.60;;;;;;;;;;5099059;28;20240;-17
2022/07/19 02:37:56;;;;;;;5.47;3.67;;;;;;;;;;5105288;27;20369;-17
2022/07/19 02:40:23;;;;;;;5.85;3.78;;;;;;;;;;5108583;27;20234;-17
2022/07/19 02:42:50;;;;;;;6.18;4.25;;;;;;;;;;5101341;27;20223;-17
2022/07/19 02:45:18;;;;;;;5.53;4.38;;;;;;;;;;5102156;28;20235;-16
2022/07/19 02:47:47;;;;;;;4.00;3.60;;;;;;;;;;5106457;27;20235;-18
2022/07/19 02:50:14;;;;;;;4.43;3.63;;;;;;;;;;5102116;27;20225;-17
2022/07/19 02:52:41;;;;;;;3.45;3.15;;;;;;;;;;5108289;27;20220;-18
2022/07/19 02:55:09;;;;;;;7.90;4.38;;;;;;;;;;5106679;27;20244;-18
2022/07/19 02:57:36;;;;;;;5.20;3.60;;;;;;;;;;5110457;28;20235;-17
2022/07/19 03:00:04;;;;;;;5.85;3.72;;;;;;;;;;5106342;27;20259;-18
2022/07/19 03:02:32;;;;;;;4.78;3.50;;;;;;;;;;5106963;28;20227;-17
2022/07/19 03:05:01;;;;;;;6.00;3.30;;;;;;;;;;5109092;27;20226;-17
2022/07/19 03:07:28;;;;;;;6.68;3.80;;;;;;;;;;5107018;27;20379;-19
2022/07/19 03:09:55;;;;;;;6.93;3.83;;;;;;;;;;5107114;27;21171;-15
2022/07/19 03:12:23;;;;;;;3.83;3.50;;;;;;;;;;5106343;27;20224;-18
2022/07/19 03:14:50;;;;;;;5.13;3.47;;;;;;;;;;5108170;27;20253;-18
2022/07/19 03:17:17;;;;;;;6.22;3.67;;;;;;;;;;5099926;27;20719;-18
2022/07/19 03:19:45;;;;;;;6.32;3.92;;;;;;;;;;5105519;27;20220;-17
2022/07/19 03:22:14;;;;;;;4.38;3.85;;;;;;;;;;5106425;27;20738;-17
2022/07/19 03:24:42;;;;;;;5.00;3.67;;;;;;;;;;5104523;28;20228;-16
2022/07/19 03:27:09;;;;;;;5.90;3.60;;;;;;;;;;5106703;27;20234;-17
2022/07/19 03:29:36;;;;;;;4.93;3.70;;;;;;;;;;5105064;28;20242;-17
2022/07/19 03:32:04;;;;;;;6.30;3.55;;;;;;;;;;5103176;28;20307;-17
2022/07/19 03:34:31;;;;;;;5.93;4.07;;;;;;;;;;5106027;27;20379;-17
2022/07/19 03:36:59;;;;;;;5.38;3.83;;;;;;;;;;5106396;27;21474;-18
2022/07/19 03:39:28;;;;;;;4.97;3.60;;;;;;;;;;5106903;27;20225;-18
2022/07/19 03:41:55;;;;;;;6.47;4.20;;;;;;;;;;5110680;27;20240;-18
2022/07/19 03:44:27;;;;;;;6.97;3.80;;;;;;;;;;5110220;27;20332;-18
2022/07/19 03:46:54;;;;;;;5.10;3.88;;;;;;;;;;5107010;28;20228;-18
2022/07/19 03:49:22;;;;;;;7.20;4.35;;;;;;;;;;5107348;27;20236;-18
2022/07/19 03:51:49;;;;;;;7.60;4.10;;;;;;;;;;5106956;27;20329;-19
2022/07/19 03:54:16;;;;;;;4.72;3.70;;;;;;;;;;5111981;27;20239;-17
2022/07/19 03:56:45;;;;;;;9.10;4.10;;;;;;;;;;5112680;27;20228;-17
2022/07/19 03:59:12;;;;;;;5.13;4.20;;;;;;;;;;5113319;27;20271;-18
2022/07/19 04:01:40;;;;;;;7.75;4.32;;;;;;;;;;5102401;27;20233;-18
2022/07/19 04:04:08;;;;;;;4.72;4.15;;;;;;;;;;5111613;27;20286;-17
2022/07/19 04:06:36;;;;;;;4.80;4.05;;;;;;;;;;5110410;27;20224;-18
2022/07/19 04:09:04;;;;;;;6.35;4.47;;;;;;;;;;5104692;28;20238;-17
2022/07/19 04:11:31;;;;;;;6.57;4.35;;;;;;;;;;5112667;27;20934;-17
2022/07/19 04:14:00;;;;;;;4.95;4.43;;;;;;;;;;5110982;28;20263;-18
2022/07/19 04:16:28;;;;;;;6.25;4.30;;;;;;;;;;5111494;27;20740;-18
2022/07/19 04:18:55;;;;;;;5.55;4.20;;;;;;;;;;5100535;27;20225;-17
2022/07/19 04:21:23;;;;;;;6.43;4.32;;;;;;;;;;5104046;28;20232;-17
2022/07/19 04:23:50;;;;;;;7.53;4.72;;;;;;;;;;5105571;27;20238;-18
2022/07/19 04:26:17;;;;;;;6.75;4.35;;;;;;;;;;5110707;27;20224;-15
2022/07/19 04:28:45;;;;;;;7.43;4.35;;;;;;;;;;5110162;27;20758;-16
2022/07/19 04:31:14;;;;;;;6.18;4.60;;;;;;;;;;5107568;27;20225;-17
2022/07/19 04:33:48;;;;;;;5.45;4.00;;;;;;;;;;5111637;27;20706;-17
2022/07/19 04:36:15;;;;;;;7.05;4.18;;;;;;;;;;5110314;27;21041;-18
2022/07/19 04:38:42;;;;;;;7.30;4.85;;;;;;;;;;5111942;27;20839;-18
2022/07/19 04:41:10;;;;;;;5.90;4.10;;;;;;;;;;5108884;27;20243;-17
2022/07/19 04:43:37;;;;;;;7.20;4.28;;;;;;;;;;5110422;27;20228;-17
2022/07/19 04:46:06;;;;;;;9.02;5.28;;;;;;;;;;5106703;27;21202;-18
2022/07/19 04:48:35;;;;;;;6.97;4.75;;;;;;;;;;5107366;28;20247;-17
2022/07/19 04:51:02;;;;;;;10.75;4.53;;;;;;;;;;5107360;27;20232;-17
2022/07/19 04:53:30;;;;;;;8.40;4.70;;;;;;;;;;5110335;27;20232;-18
2022/07/19 04:56:05;;;;;;;10.32;3.85;;;;;;;;;;5108583;27;20329;-18
2022/07/19 04:58:32;;;;;;;5.43;4.28;;;;;;;;;;5110659;28;20228;-18
2022/07/19 05:01:00;;;;;;;7.10;4.45;;;;;;;;;;5108355;27;20247;-17
2022/07/19 05:03:27;;;;;;;4.75;4.15;;;;;;;;;;5103258;27;20233;-17
2022/07/19 05:05:56;;;;;;;6.65;4.40;;;;;;;;;;5109141;27;20220;-18
2022/07/19 05:08:23;;;;;;;6.57;4.00;;;;;;;;;;5105991;27;20667;-18
2022/07/19 05:10:50;;;;;;;8.00;4.22;;;;;;;;;;5111661;27;20222;-17
2022/07/19 05:13:18;;;;;;;5.95;4.53;;;;;;;;;;5110996;27;20220;-17
2022/07/19 05:15:45;;;;;;;6.45;4.05;;;;;;;;;;5101601;27;20260;-18
2022/07/19 05:18:13;;;;;;;8.45;4.20;;;;;;;;;;5110383;28;20227;-16
2022/07/19 05:20:40;;;;;;;8.48;4.60;;;;;;;;;;5101326;28;20232;-16
2022/07/19 05:23:09;;;;;;;5.78;4.18;;;;;;;;;;5107499;27;20238;-18
2022/07/19 05:25:36;;;;;;;6.32;4.38;;;;;;;;;;5104616;27;20226;-17
2022/07/19 05:28:04;;;;;;;10.95;5.22;;;;;;;;;;5109207;27;20238;-18
2022/07/19 05:30:31;;;;;;;13.40;5.03;;;;;;;;;;5104220;27;20247;-17
2022/07/19 05:32:59;;;;;;;13.07;6.75;;;;;;;;;;5107464;27;20231;-17
2022/07/19 05:35:26;;;;;;;10.52;5.68;;;;;;;;;;5111069;27;20230;-18
2022/07/19 05:37:53;;;;;;;12.95;5.75;;;;;;;;;;5109468;27;20228;-18
2022/07/19 05:40:22;;;;;;;21.50;6.43;;;;;;;;;;5109427;27;20242;-17
2022/07/19 05:42:49;;;;;;;11.82;5.03;;;;;;;;;;5110798;27;20232;-16
2022/07/19 05:45:17;;;;;;;12.00;5.30;;;;;;;;;;5110054;27;20228;-16
2022/07/19 05:47:44;;;;;;;11.07;6.10;;;;;;;;;;5106137;28;20703;-17
2022/07/19 05:50:11;;;;;;;12.38;5.30;;;;;;;;;;5094251;28;20268;-18
2022/07/19 05:52:39;;;;;;;10.52;5.55;;;;;;;;;;5109042;27;20332;-18
2022/07/19 05:55:07;;;;;;;9.27;5.65;;;;;;;;;;5109053;27;20228;-18
2022/07/19 05:57:35;;;;;;;11.35;4.72;;;;;;;;;;5111902;27;20699;-17
2022/07/19 06:00:03;;;;;;;10.75;4.82;;;;;;;;;;5106269;27;20382;-19
2022/07/19 06:02:31;;;;;;;10.35;4.93;;;;;;;;;;5103609;28;20728;-18
2022/07/19 06:04:58;;;;;;;10.60;5.32;;;;;;;;;;5105804;27;20748;-19
2022/07/19 06:07:25;;;;;;;11.52;5.70;;;;;;;;;;5110622;27;20794;-19
2022/07/19 06:09:53;;;;;;;12.52;5.18;;;;;;;;;;5109679;27;20247;-19
2022/07/19 06:12:20;;;;;;;10.70;6.30;;;;;;;;;;5103597;28;20232;-17
2022/07/19 06:14:49;;;;;;;6.82;5.30;;;;;;;;;;5111546;27;20244;-16
2022/07/19 06:17:16;;;;;;;11.25;6.72;;;;;;;;;;5104489;27;20227;-18
2022/07/19 06:19:43;;;;;;;11.57;6.90;;;;;;;;;;5108801;27;20779;-19
2022/07/19 06:22:11;;;;;;;13.60;7.00;;;;;;;;;;5107964;27;20730;-18
2022/07/19 06:24:38;;;;;;;14.50;7.63;;;;;;;;;;5107071;27;20694;-18
2022/07/19 06:27:06;;;;;;;14.02;5.50;;;;;;;;;;5107891;27;20232;-18
2022/07/19 06:29:33;;;;;;;7.93;3.88;;;;;;;;;;5107342;27;20833;-17
2022/07/19 06:32:02;;;;;;;8.00;4.03;;;;;;;;;;5105426;28;20707;-18
2022/07/19 06:34:29;;;;;;;6.47;4.43;;;;;;;;;;5108305;27;20237;-18
2022/07/19 06:36:56;;;;;;;10.30;4.47;;;;;;;;;;5110502;27;20699;-19
2022/07/19 06:39:24;;;;;;;8.98;3.60;;;;;;;;;;5110651;27;20273;-20
2022/07/19 06:41:51;;;;;;;12.70;4.97;;;;;;;;;;5111453;27;20235;-18
2022/07/19 06:44:18;;;;;;;11.05;5.22;;;;;;;;;;5108722;27;20710;-15
2022/07/19 06:46:46;;;;;;;11.32;5.20;;;;;;;;;;5104622;28;20236;-18
2022/07/19 06:49:22;;;;;;;10.95;5.28;;;;;;;;;;5104933;27;20227;-18
2022/07/19 06:51:49;;;;;;;8.35;5.20;;;;;;;;;;5107157;27;20324;-18
2022/07/19 06:54:17;;;;;;;11.40;6.78;;;;;;;;;;5109972;27;20238;-17
2022/07/19 06:56:44;;;;;;;9.57;5.70;;;;;;;;;;5108483;27;20228;-18
2022/07/19 06:59:11;;;;;;;11.45;5.57;;;;;;;;;;5108308;27;20242;-18
2022/07/19 07:01:39;;;;;;;14.05;5.53;;;;;;;;;;5088544;28;20272;-19
2022/07/19 07:04:07;;;;;;;9.45;5.85;;;;;;;;;;5088701;28;20318;-18
2022/07/19 07:06:35;;;;;;;9.25;4.85;;;;;;;;;;5084017;28;20239;-19
2022/07/19 07:09:03;;;;;;;11.73;4.20;;;;;;;;;;5086483;28;20851;-17
2022/07/19 07:11:30;;;;;;;10.48;5.03;;;;;;;;;;5091036;28;20229;-17
2022/07/19 07:13:58;;;;;;;7.15;4.75;;;;;;;;;;5090465;28;20240;-18
2022/07/19 07:16:25;;;;;;;11.82;4.57;;;;;;;;;;5090853;28;20229;-18
2022/07/19 07:18:52;;;;;;;15.70;4.40;;;;;;;;;;5094806;28;20224;-17
2022/07/19 07:21:20;;;;;;;19.70;4.60;;;;;;;;;;5101614;27;20234;-18
2022/07/19 07:23:48;;;;;;;15.30;4.53;;;;;;;;;;5093996;28;20241;-19
2022/07/19 07:26:16;;;;;;;11.35;3.97;;;;;;;;;;5102397;28;20232;-18
2022/07/19 07:28:44;;;;;;;17.65;4.32;;;;;;;;;;5097793;27;20718;-18
2022/07/19 07:31:11;;;;;;;13.38;4.18;;;;;;;;;;5094401;28;20239;-17
2022/07/19 07:33:38;;;;;;;12.73;3.67;;;;;;;;;;5101248;27;20232;-18
2022/07/19 07:36:06;;;;;;;12.15;3.60;;;;;;;;;;5106454;28;20228;-17
2022/07/19 07:38:33;;;;;;;7.97;3.42;;;;;;;;;;5096361;28;20272;-19
2022/07/19 07:41:02;;;;;;;8.55;3.70;;;;;;;;;;5095183;28;20232;-17
2022/07/19 07:43:50;;;;;;;10.13;4.05;;;;;;;;;;5092854;28;20236;-18
2022/07/19 07:46:17;;;;;;;13.63;4.03;;;;;;;;;;5092761;28;20422;-18
2022/07/19 07:48:44;;;;;;;11.63;4.03;;;;;;;;;;5093732;28;20237;-18
2022/07/19 07:51:12;;;;;;;10.43;3.92;;;;;;;;;;5093042;28;20233;-18
2022/07/19 07:53:59;;;;;;;11.85;3.70;;;;;;;;;;5095847;28;20232;-18
2022/07/19 07:56:28;;;;;;;9.93;4.38;;;;;;;;;;5102361;28;20239;-18
2022/07/19 07:58:56;;;;;;;12.35;3.83;;;;;;;;;;5077798;28;20961;-18
2022/07/19 08:01:23;;;;;;;8.13;3.78;;;;;;;;;;5092139;28;20719;-18
2022/07/19 08:03:51;;;;;;;9.52;3.63;;;;;;;;;;5096759;28;20285;-17
2022/07/19 08:06:19;;;;;;;11.63;3.35;;;;;;;;;;5100446;27;20321;-18
2022/07/19 08:08:46;;;;;;;11.70;4.15;;;;;;;;;;5086718;28;21019;-19
2022/07/19 08:11:14;;;;;;;10.60;3.63;;;;;;;;;;5101521;27;20631;-18
2022/07/19 08:13:42;;;;;;;9.68;3.70;;;;;;;;;;5091734;28;20237;-16
2022/07/19 08:16:10;;;;;;;7.68;3.50;;;;;;;;;;5092529;28;20233;-18
2022/07/19 08:18:37;;;;;;;5.43;3.35;;;;;;;;;;5091037;28;20328;-17
2022/07/19 08:21:05;;;;;;;11.38;3.45;;;;;;;;;;5093303;28;20240;-18
2022/07/19 08:23:32;;;;;;;10.35;3.60;;;;;;;;;;5092597;28;20233;-18
2022/07/19 08:25:59;;;;;;;12.57;3.90;;;;;;;;;;5094669;28;20224;-19
2022/07/19 08:28:27;;;;;;;8.95;3.65;;;;;;;;;;5099058;27;20233;-18
2022/07/19 08:30:56;;;;;;;8.82;3.65;;;;;;;;;;5100779;28;20232;-17
2022/07/19 08:33:40;;;;;;;6.35;3.22;;;;;;;;;;5097553;28;20713;-17
2022/07/19 08:36:09;;;;;;;12.38;4.32;;;;;;;;;;5093365;28;20259;-18
2022/07/19 08:38:37;;;;;;;8.13;3.60;;;;;;;;;;5092857;28;20255;-18
2022/07/19 08:41:04;;;;;;;8.52;4.07;;;;;;;;;;5092779;28;20637;-19
2022/07/19 08:43:31;;;;;;;13.98;3.67;;;;;;;;;;5083581;28;20233;-19
2022/07/19 08:46:01;;;;;;;11.60;3.80;;;;;;;;;;5092653;28;20231;-18
2022/07/19 08:48:30;;;;;;;12.75;4.05;;;;;;;;;;5095733;28;20229;-18
2022/07/19 08:51:04;;;;;;;11.05;3.90;;;;;;;;;;5081077;28;20961;-18
2022/07/19 08:53:32;;;;;;;10.13;3.70;;;;;;;;;;5093570;28;20298;-19
2022/07/19 08:55:59;;;;;;;14.80;3.90;;;;;;;;;;5093417;28;20702;-19
2022/07/19 08:58:26;;;;;;;6.47;3.15;;;;;;;;;;5092420;28;20231;-18
2022/07/19 09:00:53;;;;;;;9.55;3.58;;;;;;;;;;5095236;28;20244;-18
2022/07/19 09:03:22;;;;;;;9.43;3.33;;;;;;;;;;5089662;28;20684;-18
2022/07/19 09:05:49;;;;;;;6.65;3.17;;;;;;;;;;5076971;28;20241;-20
2022/07/19 09:08:17;;;;;;;8.93;3.55;;;;;;;;;;5076165;28;20232;-19
2022/07/19 09:11:13;;;;;;;12.00;3.83;;;;;;;;;;5079509;28;20236;-18
2022/07/19 09:13:33;;;;;;;10.25;3.75;;;;;;;;;;5084191;28;20229;-18
2022/07/19 09:16:00;;;;;;;9.70;3.47;;;;;;;;;;5087434;28;20231;-19
2022/07/19 09:18:29;;;;;;;8.10;3.70;;;;;;;;;;5074321;28;20283;-20
2022/07/19 09:20:57;;;;;;;10.38;3.47;;;;;;;;;;5085915;28;20324;-19
2022/07/19 09:23:25;;;;;;;6.75;3.38;;;;;;;;;;5087428;28;20232;-20
2022/07/19 09:25:53;;;;;;;7.38;3.53;;;;;;;;;;5080627;28;20241;-20
2022/07/19 09:28:22;;;;;;;8.90;3.33;;;;;;;;;;5084913;28;20232;-20
2022/07/19 09:30:50;;;;;;;8.82;3.17;;;;;;;;;;5095120;28;20220;-20
2022/07/19 09:33:18;;;;;;;9.00;3.47;;;;;;;;;;5109670;28;20232;-20
2022/07/19 09:35:47;;;;;;;7.93;3.30;;;;;;;;;;5096855;27;20311;-18
2022/07/19 09:38:19;;;;;;;12.43;3.40;;;;;;;;;;5084908;28;20237;-18
2022/07/19 09:40:46;;;;;;;7.35;3.00;;;;;;;;;;5081760;28;20236;-18
2022/07/19 09:43:13;;;;;;;5.55;3.10;;;;;;;;;;5094260;28;20726;-17
2022/07/19 09:46:01;;;;;;;6.20;3.30;;;;;;;;;;5083766;28;20291;-17
2022/07/19 09:48:32;;;;;;;6.72;3.45;;;;;;;;;;5090696;28;20232;-17
2022/07/19 09:51:01;;;;;;;6.75;2.95;;;;;;;;;;5070805;28;20237;-17
2022/07/19 09:53:28;;;;;;;4.50;2.97;;;;;;;;;;5083063;28;20233;-17
2022/07/19 09:55:55;;;;;;;5.43;3.15;;;;;;;;;;5089256;28;20233;-17
2022/07/19 09:58:23;;;;;;;5.63;3.28;;;;;;;;;;5087246;28;20320;-17
2022/07/19 10:00:51;;;;;;;5.72;2.95;;;;;;;;;;5080022;28;20236;-18
2022/07/19 10:03:18;;;;;;;8.15;3.00;;;;;;;;;;5083025;28;20235;-20
2022/07/19 10:05:45;;;;;;;5.35;2.85;;;;;;;;;;5085264;28;20696;-20
2022/07/19 10:08:14;;;;;;;6.05;2.90;;;;;;;;;;5087147;28;20636;-19
2022/07/19 10:10:41;;;;;;;7.32;3.10;;;;;;;;;;5080616;28;20291;-21
2022/07/19 10:13:09;;;;;;;7.05;2.70;;;;;;;;;;5084702;28;20233;-19
2022/07/19 10:15:37;;;;;;;7.18;2.85;;;;;;;;;;5078244;28;20232;-18
2022/07/19 10:18:09;;;;;;;7.93;3.63;;;;;;;;;;5085956;28;20235;-20
2022/07/19 10:20:37;;;;;;;5.53;2.65;;;;;;;;;;5083368;28;20229;-19
2022/07/19 10:23:04;;;;;;;5.97;2.97;;;;;;;;;;5084186;28;20239;-16
2022/07/19 10:25:43;;;;;;;6.90;2.75;;;;;;;;;;5082776;28;20896;-18
2022/07/19 10:28:40;;;;;;;5.57;2.75;;;;;;;;;;5077816;28;20607;-16
2022/07/19 10:31:30;;;;;;;5.53;2.92;;;;;;;;;;5015843;28;20237;-19
2022/07/19 10:34:01;;;;;;;8.93;3.38;;;;;;;;;;5076925;28;20599;-20
2022/07/19 10:36:32;;;;;;;13.68;3.08;;;;;;;;;;5081922;28;20282;-17
2022/07/19 10:39:20;;;;;;;4.63;2.90;;;;;;;;;;5087606;28;20459;-19
2022/07/19 10:42:06;;;;;;;7.60;2.95;;;;;;;;;;5085226;28;20239;-20
2022/07/19 10:44:35;;;;;;;5.85;2.90;;;;;;;;;;5085139;28;20262;-20
2022/07/19 10:47:02;;;;;;;10.32;2.70;;;;;;;;;;5083385;28;20350;-19
2022/07/19 10:49:42;;;;;;;8.27;3.20;;;;;;;;;;5085972;28;20243;-19
2022/07/19 10:52:28;;;;;;;11.63;2.90;;;;;;;;;;5083281;28;20238;-19
2022/07/19 10:55:10;;;;;;;7.90;2.72;;;;;;;;;;5085937;28;20323;-16
2022/07/19 10:57:39;;;;;;;11.18;3.25;;;;;;;;;;5083015;28;20228;-17
2022/07/19 11:00:17;;;;;;;9.65;3.25;;;;;;;;;;5088097;28;20431;-16
2022/07/19 11:02:46;;;;;;;7.80;3.22;;;;;;;;;;5078156;28;20261;-17
2022/07/19 11:05:22;;;;;;;14.13;3.50;;;;;;;;;;5073591;28;20224;-18
2022/07/19 11:07:50;;;;;;;10.38;3.53;;;;;;;;;;5100133;28;20232;-18
2022/07/19 11:10:22;;;;;;;6.80;3.67;;;;;;;;;;5102089;27;20237;-17
2022/07/19 11:12:49;;;;;;;12.88;4.22;;;;;;;;;;5097978;27;20752;-18
2022/07/19 11:15:18;;;;;;;10.75;4.30;;;;;;;;;;5103533;27;20237;-17
2022/07/19 11:17:52;;;;;;;6.15;3.90;;;;;;;;;;5103764;27;20283;-18
2022/07/19 11:20:20;;;;;;;8.50;4.20;;;;;;;;;;5102992;27;20259;-17
2022/07/19 11:22:47;;;;;;;11.25;4.40;;;;;;;;;;5096220;27;20238;-17
2022/07/19 11:25:15;;;;;;;7.55;4.50;;;;;;;;;;5105713;27;20410;-18
2022/07/19 11:27:43;;;;;;;6.82;4.30;;;;;;;;;;5108720;27;20270;-17
2022/07/19 11:30:10;;;;;;;6.82;4.05;;;;;;;;;;5106089;27;20235;-17
2022/07/19 11:32:41;;;;;;;8.57;4.07;;;;;;;;;;5081129;28;20232;-17
2022/07/19 11:35:09;;;;;;;8.00;4.20;;;;;;;;;;5085747;28;20236;-19
2022/07/19 11:37:38;;;;;;;14.30;4.53;;;;;;;;;;5083603;28;20660;-20
2022/07/19 11:40:06;;;;;;;8.35;3.80;;;;;;;;;;5083225;28;20224;-21
2022/07/19 11:42:34;;;;;;;12.25;4.20;;;;;;;;;;5084253;28;20753;-20
2022/07/19 11:45:22;;;;;;;6.70;3.97;;;;;;;;;;5087792;28;20233;-20
2022/07/19 11:47:51;;;;;;;10.80;4.53;;;;;;;;;;5082061;28;20228;-20
2022/07/19 11:50:19;;;;;;;7.25;3.85;;;;;;;;;;5082965;28;20229;-18
2022/07/19 11:52:48;;;;;;;6.25;3.75;;;;;;;;;;5086438;28;20298;-19
2022/07/19 11:55:16;;;;;;;5.72;3.60;;;;;;;;;;5083067;28;20321;-19
2022/07/19 11:57:43;;;;;;;6.57;3.55;;;;;;;;;;5084479;28;20241;-20
2022/07/19 12:00:11;;;;;;;6.50;3.55;;;;;;;;;;5084551;28;20232;-19
2022/07/19 12:02:53;;;;;;;7.93;3.50;;;;;;;;;;5085073;28;20229;-20
2022/07/19 12:05:20;;;;;;;4.85;3.72;;;;;;;;;;5087954;28;20233;-21
2022/07/19 12:07:48;;;;;;;5.90;3.63;;;;;;;;;;5088124;28;20228;-19
2022/07/19 12:10:34;;;;;;;14.30;3.92;;;;;;;;;;5085958;28;20237;-18
2022/07/19 12:13:01;;;;;;;7.22;3.47;;;;;;;;;;5085404;28;20259;-19
2022/07/19 12:15:42;;;;;;;7.35;3.55;;;;;;;;;;5082201;28;20237;-20
2022/07/19 12:18:12;;;;;;;4.90;3.42;;;;;;;;;;5088098;28;20316;-20
2022/07/19 12:20:40;;;;;;;9.13;3.55;;;;;;;;;;5082544;28;20696;-18
2022/07/19 12:23:18;;;;;;;7.70;3.65;;;;;;;;;;5085773;28;20232;-20
2022/07/19 12:25:46;;;;;;;6.50;3.47;;;;;;;;;;5089001;28;20727;-20
2022/07/19 12:28:13;;;;;;;5.85;3.40;;;;;;;;;;5087253;28;20243;-21
2022/07/19 12:30:40;;;;;;;4.82;3.40;;;;;;;;;;5083044;28;20243;-20
2022/07/19 12:33:09;;;;;;;11.52;3.53;;;;;;;;;;5087884;28;20275;-20
2022/07/19 12:35:44;;;;;;;7.95;3.58;;;;;;;;;;5089056;28;20977;-17
2022/07/19 12:38:12;;;;;;;4.32;3.40;;;;;;;;;;5086938;28;20703;-19
2022/07/19 12:40:40;;;;;;;5.47;3.55;;;;;;;;;;5088407;28;20240;-19
2022/07/19 12:43:11;;;;;;;4.90;3.20;;;;;;;;;;5088480;28;20229;-20
2022/07/19 12:45:41;;;;;;;6.47;3.28;;;;;;;;;;5088362;28;20335;-17
2022/07/19 12:48:10;;;;;;;11.70;3.40;;;;;;;;;;5086244;28;20233;-19
2022/07/19 12:50:38;;;;;;;6.90;3.70;;;;;;;;;;5085738;28;20865;-20
2022/07/19 12:53:07;;;;;;;7.00;2.95;;;;;;;;;;5087610;28;20240;-21
2022/07/19 12:55:35;;;;;;;10.80;3.42;;;;;;;;;;5087809;28;20233;-20
2022/07/19 12:58:03;;;;;;;7.35;2.85;;;;;;;;;;5087510;28;20233;-18
2022/07/19 13:00:31;;;;;;;12.73;3.63;;;;;;;;;;5086672;28;20232;-19
2022/07/19 13:02:58;;;;;;;6.82;2.80;;;;;;;;;;5086701;28;20707;-18
2022/07/19 13:05:26;;;;;;;7.78;3.00;;;;;;;;;;5088432;28;21667;-21
2022/07/19 13:07:54;;;;;;;8.77;3.13;;;;;;;;;;5090963;28;20241;-20
2022/07/19 13:10:22;;;;;;;9.68;3.13;;;;;;;;;;5093714;28;20354;-19
2022/07/19 13:12:50;;;;;;;4.80;3.13;;;;;;;;;;5087232;28;20335;-18
2022/07/19 13:15:17;;;;;;;5.07;2.97;;;;;;;;;;5103412;27;20229;-19
2022/07/19 13:17:45;;;;;;;5.70;2.80;;;;;;;;;;5094781;28;21041;-19
2022/07/19 13:20:12;;;;;;;8.02;2.88;;;;;;;;;;5088759;28;21064;-21
2022/07/19 13:22:40;;;;;;;5.80;2.67;;;;;;;;;;5088582;28;20233;-19
2022/07/19 13:25:08;;;;;;;6.05;3.03;;;;;;;;;;5085897;28;20320;-20
2022/07/19 13:27:57;;;;;;;12.70;3.20;;;;;;;;;;5089906;28;20224;-19
2022/07/19 13:30:24;;;;;;;4.32;2.60;;;;;;;;;;5094673;28;20233;-20
2022/07/19 13:32:51;;;;;;;5.25;2.47;;;;;;;;;;5089390;28;20271;-18
2022/07/19 13:35:19;;;;;;;3.40;2.65;;;;;;;;;;5086260;28;20289;-19
2022/07/19 13:37:47;;;;;;;3.08;2.47;;;;;;;;;;5088512;28;20235;-19
2022/07/19 13:40:14;;;;;;;7.78;3.00;;;;;;;;;;5085768;28;20233;-19
2022/07/19 13:42:41;;;;;;;9.90;3.05;;;;;;;;;;5086424;28;20289;-17
2022/07/19 13:45:11;;;;;;;8.18;3.00;;;;;;;;;;5087213;27;20233;-19
2022/07/19 13:47:38;;;;;;;8.77;2.97;;;;;;;;;;5086580;28;21035;-20
2022/07/19 13:50:07;;;;;;;4.78;3.10;;;;;;;;;;5082952;28;20253;-19
2022/07/19 13:52:35;;;;;;;8.13;3.10;;;;;;;;;;5087498;28;20663;-19
2022/07/19 13:55:02;;;;;;;6.53;2.70;;;;;;;;;;5089792;27;20241;-18
2022/07/19 13:57:30;;;;;;;7.40;2.80;;;;;;;;;;5091960;28;20740;-20
2022/07/19 13:59:57;;;;;;;8.43;3.60;;;;;;;;;;5098468;28;20271;-16
2022/07/19 14:02:26;;;;;;;7.47;3.00;;;;;;;;;;5092174;28;20232;-18
2022/07/19 14:04:54;;;;;;;9.88;2.80;;;;;;;;;;5087512;28;20240;-20
2022/07/19 14:07:21;;;;;;;6.95;2.75;;;;;;;;;;5085231;28;20217;-20
2022/07/19 14:09:48;;;;;;;5.45;3.08;;;;;;;;;;5088272;28;20320;-19
2022/07/19 14:12:16;;;;;;;7.15;3.20;;;;;;;;;;5090370;28;20703;-19
2022/07/19 14:14:43;;;;;;;4.95;3.08;;;;;;;;;;5095902;28;20231;-20
2022/07/19 14:17:10;;;;;;;6.90;2.92;;;;;;;;;;5090103;28;20239;-19
2022/07/19 14:19:39;;;;;;;5.70;3.00;;;;;;;;;;5085932;28;20240;-19
2022/07/19 14:22:07;;;;;;;6.38;3.08;;;;;;;;;;5082936;28;22093;-21
2022/07/19 14:24:34;;;;;;;3.90;3.03;;;;;;;;;;5088977;28;20243;-20
2022/07/19 14:27:01;;;;;;;8.45;3.08;;;;;;;;;;5096941;28;20235;-17
2022/07/19 14:29:29;;;;;;;7.28;2.90;;;;;;;;;;5094591;28;20891;-17
2022/07/19 14:31:56;;;;;;;5.15;3.33;;;;;;;;;;5099902;27;20260;-20
2022/07/19 14:34:24;;;;;;;6.07;3.20;;;;;;;;;;5088736;28;20237;-20
2022/07/19 14:37:08;;;;;;;9.98;3.20;;;;;;;;;;5095083;27;20236;-20
2022/07/19 14:39:35;;;;;;;5.20;3.20;;;;;;;;;;5090101;28;20286;-20
2022/07/19 14:42:03;;;;;;;5.28;2.78;;;;;;;;;;5097494;28;20234;-19
2022/07/19 14:44:30;;;;;;;5.20;2.90;;;;;;;;;;5096111;28;20237;-19
2022/07/19 14:46:58;;;;;;;7.40;3.08;;;;;;;;;;5096569;27;20236;-17
2022/07/19 14:49:26;;;;;;;17.27;3.40;;;;;;;;;;5096552;28;20237;-19